Buoy 46533

sailwx.info

Track history (hours):
 
Tides and Currents Weather Stations Pressure Air Temp Water Temp Dewpoint Dewpoint Depression Visibility Wind Speed Wind Dir Waves Ship Positions

Drifting buoy 46533

Last reported at 2015-Jul-05 07:00 UTC. Time now 2015-Jul-05 12:53 UTC.
Position N 50°10' W 139°14'.

Water temperature 14.0 ° C

Date/timePositionNaut miles runAvg speedWind from/ knotsBaromVisibWave heightAir tempDewpointWater temp
2015-Jul-05 07:00N 50°10' W 139°14'1 0.4 14.0
2015-Jul-05 05:00N 50°11' W 139°14'2 0.4 14.0
2015-Jul-05 00:00N 50°10' W 139°17'0 0.4 14.1
2015-Jul-04 23:00N 50°10' W 139°17'1 1.1 14.0
2015-Jul-04 22:00N 50°09' W 139°17'0 0.0 13.9
2015-Jul-04 21:00N 50°09' W 139°17'1 0.4 13.9
2015-Jul-04 18:00N 50°08' W 139°16'1 0.3 13.7
2015-Jul-04 15:00N 50°09' W 139°16'0 0.0 13.6
2015-Jul-04 14:00N 50°09' W 139°16'3 0.3 13.6
2015-Jul-04 04:00N 50°06' W 139°18'0 0.2 13.9
2015-Jul-04 02:00N 50°06' W 139°18'0 0.1 14.0
2015-Jul-04 00:00N 50°07' W 139°17'1 0.7 13.9
2015-Jul-03 23:00N 50°07' W 139°17'1 0.3 13.8
2015-Jul-03 21:00N 50°07' W 139°18'1 0.7 13.6
2015-Jul-03 20:00N 50°07' W 139°19'0 0.3 13.6
2015-Jul-03 19:00N 50°07' W 139°19'1 0.4 13.4
2015-Jul-03 16:00N 50°06' W 139°21'1 0.6 13.4
2015-Jul-03 14:00N 50°05' W 139°21'1 0.5 13.4
2015-Jul-03 13:00N 50°05' W 139°21'1 0.2 13.4
2015-Jul-03 06:00N 50°06' W 139°19'1 0.6 13.4
2015-Jul-03 04:00N 50°06' W 139°21'2 0.5 13.4
2015-Jul-03 00:00N 50°04' W 139°23'1 1.4 13.3
2015-Jul-02 23:00N 50°03' W 139°22'0 0.0 13.3
2015-Jul-02 22:00N 50°03' W 139°22'1 0.2 13.3
2015-Jul-02 16:00N 50°04' W 139°21'0 0.0 13.1
2015-Jul-02 15:00N 50°04' W 139°21'1 0.5 13.1
2015-Jul-02 12:00N 50°04' W 139°23'2 2.4 13.1
2015-Jul-02 11:00N 50°01' W 139°23'0 0.0 13.1
2015-Jul-02 10:00N 50°01' W 139°23'1 0.3 13.2
2015-Jul-02 05:00N 50°01' W 139°21'1 0.2 13.2
2015-Jul-02 01:00N 50°01' W 139°21'1 0.5 13.2
2015-Jul-01 22:00N 50°03' W 139°22'2 0.5 13.1
2015-Jul-01 19:00N 50°03' W 139°25'2 1.9 13.1
2015-Jul-01 18:00N 50°02' W 139°27'0 0.0 13.1
2015-Jul-01 17:00N 50°02' W 139°27'1 0.4 13.2
2015-Jul-01 15:00N 50°01' W 139°28'1 0.3 13.2
2015-Jul-01 12:00N 50°01' W 139°29'0 0.2 13.6
2015-Jul-01 10:00N 50°01' W 139°30'0 0.4 13.7
2015-Jul-01 09:00N 50°01' W 139°29'2 0.3 13.8
2015-Jul-01 02:00N 49°59' W 139°31'1 0.2 14.4
2015-Jun-30 22:00N 49°58' W 139°30'1 0.6 14.4
2015-Jun-30 21:00N 49°59' W 139°29'2 0.3 14.3
2015-Jun-30 14:00N 49°59' W 139°32'0 0.5 13.8
2015-Jun-30 13:00N 49°58' W 139°32'1 0.6 13.9
2015-Jun-30 12:00N 49°58' W 139°32'0 0.5 13.9
2015-Jun-30 11:00N 49°58' W 139°32'1 0.3 13.9
2015-Jun-30 06:00N 49°57' W 139°31'1 0.2 13.9
2015-Jun-30 02:00N 49°57' W 139°32'0 0.1 14.0
2015-Jun-30 01:00N 49°57' W 139°32'1 0.7 13.9
2015-Jun-30 00:00N 49°57' W 139°33'0 0.0 13.8
2015-Jun-29 23:00N 49°57' W 139°33'2 0.3 13.8
2015-Jun-29 16:00N 49°55' W 139°33'1 0.6 13.4
2015-Jun-29 15:00N 49°55' W 139°32'1 0.8 13.3
2015-Jun-29 14:00N 49°56' W 139°33'2 0.3 13.4
2015-Jun-29 06:00N 49°55' W 139°37'1 0.4 14.0
2015-Jun-29 04:00N 49°54' W 139°36'0 0.1 14.3
2015-Jun-29 00:00N 49°54' W 139°35'1 0.2 14.3
2015-Jun-28 20:00N 49°55' W 139°36'2 0.3 14.3
2015-Jun-28 15:00N 49°54' W 139°38'1 0.2 13.5
2015-Jun-28 11:00N 49°53' W 139°38'0 0.2 13.6
2015-Jun-28 10:00N 49°53' W 139°38'0 0.0 13.7
2015-Jun-28 06:00N 49°53' W 139°38'0 0.1 14.4
2015-Jun-28 03:00N 49°53' W 139°38'1 0.3 14.6
2015-Jun-28 01:00N 49°53' W 139°39'2 0.4 14.7
2015-Jun-27 21:00N 49°52' W 139°41'1 0.4 13.2
2015-Jun-27 17:00N 49°52' W 139°39'2 0.4 12.7
2015-Jun-27 11:00N 49°52' W 139°43'1 0.2 12.6
2015-Jun-27 05:00N 49°51' W 139°43'1 0.3 12.7
2015-Jun-27 03:00N 49°50' W 139°42'0 0.1 12.7
2015-Jun-26 23:00N 49°50' W 139°42'1 0.3 12.6
2015-Jun-26 19:00N 49°51' W 139°44'1 0.7 12.4
2015-Jun-26 17:00N 49°50' W 139°45'0 0.5 12.4
2015-Jun-26 16:00N 49°49' W 139°44'0 0.2 12.3
2015-Jun-26 14:00N 49°49' W 139°45'0 0.4 12.4
2015-Jun-26 13:00N 49°49' W 139°45'0 0.0 12.4
2015-Jun-26 12:00N 49°49' W 139°45'0 0.3 12.4
2015-Jun-26 11:00N 49°49' W 139°45'1 0.2 12.4
2015-Jun-26 06:00N 49°50' W 139°44'1 1.2 12.5
2015-Jun-26 05:00N 49°49' W 139°46'0 0.1 12.5
2015-Jun-26 04:00N 49°49' W 139°46'0 0.1 12.5
2015-Jun-26 03:00N 49°49' W 139°46'0 0.4 12.5
2015-Jun-26 02:00N 49°49' W 139°47'0 0.2 12.5
2015-Jun-26 01:00N 49°49' W 139°47'1 1.1 12.6
2015-Jun-26 00:00N 49°49' W 139°48'1 0.6 12.5
2015-Jun-25 23:00N 49°49' W 139°48'1 0.7 12.5
2015-Jun-25 22:00N 49°48' W 139°49'0 0.0 12.4
2015-Jun-25 21:00N 49°48' W 139°49'0 0.1 12.3
2015-Jun-25 19:00N 49°48' W 139°49'1 0.3 12.2
2015-Jun-25 17:00N 49°48' W 139°48'0 0.2 12.3
2015-Jun-25 15:00N 49°48' W 139°49'0 0.3 12.3
2015-Jun-25 14:00N 49°48' W 139°48'1 1.0 12.3
2015-Jun-25 13:00N 49°49' W 139°50'2 0.9 12.4
2015-Jun-25 11:00N 49°48' W 139°52'0 0.1 12.4
2015-Jun-25 07:00N 49°47' W 139°52'   12.5
Track history (hours):
 
Tides and Currents Weather Stations Pressure Air Temp Water Temp Dewpoint Dewpoint Depression Visibility Wind Speed Wind Dir Waves Ship Positions

Drifting buoy 46533

Last reported at 2015-Jul-05 07:00 UTC. Time now 2015-Jul-05 12:53 UTC.
Position N 50°10' W 139°14'.

Water temperature 14.0 ° C

Date/timePositionNaut miles runAvg speedWind from/ knotsBaromVisibWave heightAir tempDewpointWater temp
2015-Jul-05 07:00N 50°10' W 139°14'1 0.4 14.0
2015-Jul-05 05:00N 50°11' W 139°14'2 0.4 14.0
2015-Jul-05 00:00N 50°10' W 139°17'0 0.4 14.1
2015-Jul-04 23:00N 50°10' W 139°17'1 1.1 14.0
2015-Jul-04 22:00N 50°09' W 139°17'0 0.0 13.9
2015-Jul-04 21:00N 50°09' W 139°17'1 0.4 13.9
2015-Jul-04 18:00N 50°08' W 139°16'1 0.3 13.7
2015-Jul-04 15:00N 50°09' W 139°16'0 0.0 13.6
2015-Jul-04 14:00N 50°09' W 139°16'3 0.3 13.6
2015-Jul-04 04:00N 50°06' W 139°18'0 0.2 13.9
2015-Jul-04 02:00N 50°06' W 139°18'0 0.1 14.0
2015-Jul-04 00:00N 50°07' W 139°17'1 0.7 13.9
2015-Jul-03 23:00N 50°07' W 139°17'1 0.3 13.8
2015-Jul-03 21:00N 50°07' W 139°18'1 0.7 13.6
2015-Jul-03 20:00N 50°07' W 139°19'0 0.3 13.6
2015-Jul-03 19:00N 50°07' W 139°19'1 0.4 13.4
2015-Jul-03 16:00N 50°06' W 139°21'1 0.6 13.4
2015-Jul-03 14:00N 50°05' W 139°21'1 0.5 13.4
2015-Jul-03 13:00N 50°05' W 139°21'1 0.2 13.4
2015-Jul-03 06:00N 50°06' W 139°19'1 0.6 13.4
2015-Jul-03 04:00N 50°06' W 139°21'2 0.5 13.4
2015-Jul-03 00:00N 50°04' W 139°23'1 1.4 13.3
2015-Jul-02 23:00N 50°03' W 139°22'0 0.0 13.3
2015-Jul-02 22:00N 50°03' W 139°22'1 0.2 13.3
2015-Jul-02 16:00N 50°04' W 139°21'0 0.0 13.1
2015-Jul-02 15:00N 50°04' W 139°21'1 0.5 13.1
2015-Jul-02 12:00N 50°04' W 139°23'2 2.4 13.1
2015-Jul-02 11:00N 50°01' W 139°23'0 0.0 13.1
2015-Jul-02 10:00N 50°01' W 139°23'1 0.3 13.2
2015-Jul-02 05:00N 50°01' W 139°21'1 0.2 13.2
2015-Jul-02 01:00N 50°01' W 139°21'1 0.5 13.2
2015-Jul-01 22:00N 50°03' W 139°22'2 0.5 13.1
2015-Jul-01 19:00N 50°03' W 139°25'2 1.9 13.1
2015-Jul-01 18:00N 50°02' W 139°27'0 0.0 13.1
2015-Jul-01 17:00N 50°02' W 139°27'1 0.4 13.2
2015-Jul-01 15:00N 50°01' W 139°28'1 0.3 13.2
2015-Jul-01 12:00N 50°01' W 139°29'0 0.2 13.6
2015-Jul-01 10:00N 50°01' W 139°30'0 0.4 13.7
2015-Jul-01 09:00N 50°01' W 139°29'2 0.3 13.8
2015-Jul-01 02:00N 49°59' W 139°31'1 0.2 14.4
2015-Jun-30 22:00N 49°58' W 139°30'1 0.6 14.4
2015-Jun-30 21:00N 49°59' W 139°29'2 0.3 14.3
2015-Jun-30 14:00N 49°59' W 139°32'0 0.5 13.8
2015-Jun-30 13:00N 49°58' W 139°32'1 0.6 13.9
2015-Jun-30 12:00N 49°58' W 139°32'0 0.5 13.9
2015-Jun-30 11:00N 49°58' W 139°32'1 0.3 13.9
2015-Jun-30 06:00N 49°57' W 139°31'1 0.2 13.9
2015-Jun-30 02:00N 49°57' W 139°32'0 0.1 14.0
2015-Jun-30 01:00N 49°57' W 139°32'1 0.7 13.9
2015-Jun-30 00:00N 49°57' W 139°33'0 0.0 13.8
2015-Jun-29 23:00N 49°57' W 139°33'2 0.3 13.8
2015-Jun-29 16:00N 49°55' W 139°33'1 0.6 13.4
2015-Jun-29 15:00N 49°55' W 139°32'1 0.8 13.3
2015-Jun-29 14:00N 49°56' W 139°33'2 0.3 13.4
2015-Jun-29 06:00N 49°55' W 139°37'1 0.4 14.0
2015-Jun-29 04:00N 49°54' W 139°36'0 0.1 14.3
2015-Jun-29 00:00N 49°54' W 139°35'1 0.2 14.3
2015-Jun-28 20:00N 49°55' W 139°36'2 0.3 14.3
2015-Jun-28 15:00N 49°54' W 139°38'1 0.2 13.5
2015-Jun-28 11:00N 49°53' W 139°38'0 0.2 13.6
2015-Jun-28 10:00N 49°53' W 139°38'0 0.0 13.7
2015-Jun-28 06:00N 49°53' W 139°38'0 0.1 14.4
2015-Jun-28 03:00N 49°53' W 139°38'1 0.3 14.6
2015-Jun-28 01:00N 49°53' W 139°39'2 0.4 14.7
2015-Jun-27 21:00N 49°52' W 139°41'1 0.4 13.2
2015-Jun-27 17:00N 49°52' W 139°39'2 0.4 12.7
2015-Jun-27 11:00N 49°52' W 139°43'1 0.2 12.6
2015-Jun-27 05:00N 49°51' W 139°43'1 0.3 12.7
2015-Jun-27 03:00N 49°50' W 139°42'0 0.1 12.7
2015-Jun-26 23:00N 49°50' W 139°42'1 0.3 12.6
2015-Jun-26 19:00N 49°51' W 139°44'1 0.7 12.4
2015-Jun-26 17:00N 49°50' W 139°45'0 0.5 12.4
2015-Jun-26 16:00N 49°49' W 139°44'0 0.2 12.3
2015-Jun-26 14:00N 49°49' W 139°45'0 0.4 12.4
2015-Jun-26 13:00N 49°49' W 139°45'0 0.0 12.4
2015-Jun-26 12:00N 49°49' W 139°45'0 0.3 12.4
2015-Jun-26 11:00N 49°49' W 139°45'1 0.2 12.4
2015-Jun-26 06:00N 49°50' W 139°44'1 1.2 12.5
2015-Jun-26 05:00N 49°49' W 139°46'0 0.1 12.5
2015-Jun-26 04:00N 49°49' W 139°46'0 0.1 12.5
2015-Jun-26 03:00N 49°49' W 139°46'0 0.4 12.5
2015-Jun-26 02:00N 49°49' W 139°47'0 0.2 12.5
2015-Jun-26 01:00N 49°49' W 139°47'1 1.1 12.6
2015-Jun-26 00:00N 49°49' W 139°48'1 0.6 12.5
2015-Jun-25 23:00N 49°49' W 139°48'1 0.7 12.5
2015-Jun-25 22:00N 49°48' W 139°49'0 0.0 12.4
2015-Jun-25 21:00N 49°48' W 139°49'0 0.1 12.3
2015-Jun-25 19:00N 49°48' W 139°49'1 0.3 12.2
2015-Jun-25 17:00N 49°48' W 139°48'0 0.2 12.3
2015-Jun-25 15:00N 49°48' W 139°49'0 0.3 12.3
2015-Jun-25 14:00N 49°48' W 139°48'1 1.0 12.3
2015-Jun-25 13:00N 49°49' W 139°50'2 0.9 12.4
2015-Jun-25 11:00N 49°48' W 139°52'0 0.1 12.4
2015-Jun-25 07:00N 49°47' W 139°52'   12.5

Dump ship's entire track history